sensor_id;sensor_type;location;lat;lon;timestamp;P1;durP1;ratioP1;P2;durP2;ratioP2
41572;SDS011;27286;47.870;19.006;2022-12-07T00:03:49;16.23;;;8.63;;
41572;SDS011;27286;47.870;19.006;2022-12-07T00:06:17;12.20;;;8.00;;
41572;SDS011;27286;47.870;19.006;2022-12-07T00:08:43;10.30;;;8.02;;
41572;SDS011;27286;47.870;19.006;2022-12-07T00:11:10;11.27;;;8.50;;
41572;SDS011;27286;47.870;19.006;2022-12-07T00:13:38;12.82;;;9.07;;
41572;SDS011;27286;47.870;19.006;2022-12-07T00:16:05;12.13;;;9.30;;
41572;SDS011;27286;47.870;19.006;2022-12-07T00:18:36;13.80;;;9.10;;
41572;SDS011;27286;47.870;19.006;2022-12-07T00:21:24;13.40;;;9.85;;
41572;SDS011;27286;47.870;19.006;2022-12-07T00:23:55;12.75;;;9.10;;
41572;SDS011;27286;47.870;19.006;2022-12-07T00:26:22;12.23;;;9.30;;
41572;SDS011;27286;47.870;19.006;2022-12-07T00:28:54;14.15;;;9.95;;
41572;SDS011;27286;47.870;19.006;2022-12-07T00:31:22;11.73;;;9.55;;
41572;SDS011;27286;47.870;19.006;2022-12-07T00:33:49;15.20;;;10.02;;
41572;SDS011;27286;47.870;19.006;2022-12-07T00:36:16;13.10;;;10.55;;
41572;SDS011;27286;47.870;19.006;2022-12-07T00:38:43;14.20;;;10.75;;
41572;SDS011;27286;47.870;19.006;2022-12-07T00:41:10;11.52;;;9.57;;
41572;SDS011;27286;47.870;19.006;2022-12-07T00:43:37;13.98;;;10.77;;
41572;SDS011;27286;47.870;19.006;2022-12-07T00:46:03;13.95;;;10.32;;
41572;SDS011;27286;47.870;19.006;2022-12-07T00:48:29;11.68;;;9.10;;
41572;SDS011;27286;47.870;19.006;2022-12-07T00:50:55;13.80;;;9.35;;
41572;SDS011;27286;47.870;19.006;2022-12-07T00:53:20;13.60;;;9.02;;
41572;SDS011;27286;47.870;19.006;2022-12-07T00:55:46;13.73;;;9.65;;
41572;SDS011;27286;47.870;19.006;2022-12-07T00:58:12;16.67;;;10.50;;
41572;SDS011;27286;47.870;19.006;2022-12-07T01:00:38;16.55;;;10.07;;
41572;SDS011;27286;47.870;19.006;2022-12-07T01:03:05;14.85;;;11.05;;
41572;SDS011;27286;47.870;19.006;2022-12-07T01:05:32;13.93;;;10.68;;
41572;SDS011;27286;47.870;19.006;2022-12-07T01:07:58;14.88;;;9.90;;
41572;SDS011;27286;47.870;19.006;2022-12-07T01:10:23;12.20;;;9.38;;
41572;SDS011;27286;47.870;19.006;2022-12-07T01:12:49;15.15;;;11.25;;
41572;SDS011;27286;47.870;19.006;2022-12-07T01:15:14;14.25;;;10.05;;
41572;SDS011;27286;47.870;19.006;2022-12-07T01:17:40;15.35;;;11.20;;
41572;SDS011;27286;47.870;19.006;2022-12-07T01:20:05;13.82;;;10.95;;
41572;SDS011;27286;47.870;19.006;2022-12-07T01:22:36;18.25;;;10.60;;
41572;SDS011;27286;47.870;19.006;2022-12-07T01:25:06;15.10;;;9.52;;
41572;SDS011;27286;47.870;19.006;2022-12-07T01:27:33;11.75;;;9.30;;
41572;SDS011;27286;47.870;19.006;2022-12-07T01:29:59;11.38;;;9.15;;
41572;SDS011;27286;47.870;19.006;2022-12-07T01:32:25;12.10;;;8.55;;
41572;SDS011;27286;47.870;19.006;2022-12-07T01:34:51;12.50;;;9.43;;
41572;SDS011;27286;47.870;19.006;2022-12-07T01:37:16;13.23;;;8.88;;
41572;SDS011;27286;47.870;19.006;2022-12-07T01:39:42;13.82;;;8.68;;
41572;SDS011;27286;47.870;19.006;2022-12-07T01:42:11;11.27;;;8.25;;
41572;SDS011;27286;47.870;19.006;2022-12-07T01:47:40;13.45;;;8.38;;
41572;SDS011;27286;47.870;19.006;2022-12-07T01:50:07;14.77;;;9.18;;
41572;SDS011;27286;47.870;19.006;2022-12-07T01:52:33;12.32;;;8.82;;
41572;SDS011;27286;47.870;19.006;2022-12-07T01:55:03;11.52;;;8.82;;
41572;SDS011;27286;47.870;19.006;2022-12-07T01:57:31;14.25;;;9.57;;
41572;SDS011;27286;47.870;19.006;2022-12-07T01:59:59;11.85;;;9.30;;
41572;SDS011;27286;47.870;19.006;2022-12-07T02:02:26;12.50;;;9.50;;
41572;SDS011;27286;47.870;19.006;2022-12-07T02:04:56;12.32;;;9.23;;
41572;SDS011;27286;47.870;19.006;2022-12-07T02:07:23;14.48;;;10.18;;
41572;SDS011;27286;47.870;19.006;2022-12-07T02:09:50;10.60;;;8.20;;
41572;SDS011;27286;47.870;19.006;2022-12-07T02:12:15;12.10;;;9.35;;
41572;SDS011;27286;47.870;19.006;2022-12-07T02:14:41;13.68;;;9.45;;
41572;SDS011;27286;47.870;19.006;2022-12-07T02:20:03;11.70;;;8.27;;
41572;SDS011;27286;47.870;19.006;2022-12-07T02:31:43;12.68;;;9.23;;
41572;SDS011;27286;47.870;19.006;2022-12-07T02:34:18;13.05;;;9.63;;
41572;SDS011;27286;47.870;19.006;2022-12-07T02:36:53;12.75;;;9.43;;
41572;SDS011;27286;47.870;19.006;2022-12-07T02:39:28;14.43;;;9.73;;
41572;SDS011;27286;47.870;19.006;2022-12-07T02:42:02;10.00;;;8.73;;
41572;SDS011;27286;47.870;19.006;2022-12-07T02:44:32;12.98;;;9.55;;
41572;SDS011;27286;47.870;19.006;2022-12-07T02:47:03;11.55;;;9.57;;
41572;SDS011;27286;47.870;19.006;2022-12-07T02:49:32;13.70;;;9.55;;
41572;SDS011;27286;47.870;19.006;2022-12-07T02:51:58;13.93;;;10.38;;
41572;SDS011;27286;47.870;19.006;2022-12-07T02:54:23;12.77;;;9.93;;
41572;SDS011;27286;47.870;19.006;2022-12-07T02:59:29;14.80;;;9.77;;
41572;SDS011;27286;47.870;19.006;2022-12-07T03:02:06;12.75;;;9.93;;
41572;SDS011;27286;47.870;19.006;2022-12-07T03:13:26;15.82;;;12.38;;
41572;SDS011;27286;47.870;19.006;2022-12-07T03:18:28;16.38;;;13.25;;
41572;SDS011;27286;47.870;19.006;2022-12-07T03:20:57;17.40;;;12.70;;
41572;SDS011;27286;47.870;19.006;2022-12-07T03:23:27;14.85;;;12.65;;
41572;SDS011;27286;47.870;19.006;2022-12-07T03:25:58;18.52;;;14.15;;
41572;SDS011;27286;47.870;19.006;2022-12-07T03:28:27;16.65;;;13.32;;
41572;SDS011;27286;47.870;19.006;2022-12-07T03:31:05;17.42;;;13.52;;
41572;SDS011;27286;47.870;19.006;2022-12-07T03:39:22;16.42;;;12.85;;
41572;SDS011;27286;47.870;19.006;2022-12-07T03:41:49;16.33;;;12.70;;
41572;SDS011;27286;47.870;19.006;2022-12-07T03:44:16;22.83;;;16.55;;
41572;SDS011;27286;47.870;19.006;2022-12-07T03:46:56;20.77;;;14.23;;
41572;SDS011;27286;47.870;19.006;2022-12-07T03:49:28;20.27;;;15.68;;
41572;SDS011;27286;47.870;19.006;2022-12-07T03:57:22;15.95;;;12.50;;
41572;SDS011;27286;47.870;19.006;2022-12-07T03:59:50;18.98;;;15.07;;
41572;SDS011;27286;47.870;19.006;2022-12-07T04:02:17;18.05;;;14.95;;
41572;SDS011;27286;47.870;19.006;2022-12-07T04:04:42;17.73;;;13.88;;
41572;SDS011;27286;47.870;19.006;2022-12-07T04:07:08;15.35;;;12.98;;
41572;SDS011;27286;47.870;19.006;2022-12-07T04:09:34;16.98;;;11.82;;
41572;SDS011;27286;47.870;19.006;2022-12-07T04:11:59;15.80;;;12.45;;
41572;SDS011;27286;47.870;19.006;2022-12-07T04:14:25;14.15;;;11.18;;
41572;SDS011;27286;47.870;19.006;2022-12-07T04:16:51;14.93;;;11.40;;
41572;SDS011;27286;47.870;19.006;2022-12-07T04:19:19;15.02;;;11.88;;
41572;SDS011;27286;47.870;19.006;2022-12-07T04:21:46;17.67;;;13.40;;
41572;SDS011;27286;47.870;19.006;2022-12-07T04:24:13;17.77;;;12.85;;
41572;SDS011;27286;47.870;19.006;2022-12-07T04:26:40;26.02;;;17.88;;
41572;SDS011;27286;47.870;19.006;2022-12-07T04:29:06;33.58;;;20.55;;
41572;SDS011;27286;47.870;19.006;2022-12-07T04:31:32;17.73;;;12.35;;
41572;SDS011;27286;47.870;19.006;2022-12-07T04:33:58;28.25;;;15.68;;
41572;SDS011;27286;47.870;19.006;2022-12-07T04:36:23;20.52;;;13.07;;
41572;SDS011;27286;47.870;19.006;2022-12-07T04:38:49;16.67;;;11.35;;
41572;SDS011;27286;47.870;19.006;2022-12-07T04:41:14;16.45;;;12.40;;
41572;SDS011;27286;47.870;19.006;2022-12-07T04:43:39;19.17;;;13.73;;
41572;SDS011;27286;47.870;19.006;2022-12-07T04:46:05;16.52;;;12.18;;
41572;SDS011;27286;47.870;19.006;2022-12-07T04:48:30;16.88;;;12.55;;
41572;SDS011;27286;47.870;19.006;2022-12-07T04:50:56;18.35;;;13.13;;
41572;SDS011;27286;47.870;19.006;2022-12-07T04:53:22;19.35;;;12.73;;
41572;SDS011;27286;47.870;19.006;2022-12-07T04:55:47;16.42;;;13.07;;
41572;SDS011;27286;47.870;19.006;2022-12-07T04:58:13;20.65;;;14.07;;
41572;SDS011;27286;47.870;19.006;2022-12-07T05:00:39;20.65;;;15.10;;
41572;SDS011;27286;47.870;19.006;2022-12-07T05:03:06;16.48;;;13.25;;
41572;SDS011;27286;47.870;19.006;2022-12-07T05:05:31;26.23;;;15.60;;
41572;SDS011;27286;47.870;19.006;2022-12-07T05:07:57;15.50;;;12.05;;
41572;SDS011;27286;47.870;19.006;2022-12-07T05:10:22;14.35;;;11.82;;
41572;SDS011;27286;47.870;19.006;2022-12-07T05:12:48;17.20;;;12.43;;
41572;SDS011;27286;47.870;19.006;2022-12-07T05:15:14;14.48;;;12.77;;
41572;SDS011;27286;47.870;19.006;2022-12-07T05:17:40;15.80;;;12.15;;
41572;SDS011;27286;47.870;19.006;2022-12-07T05:20:05;15.40;;;13.60;;
41572;SDS011;27286;47.870;19.006;2022-12-07T05:22:31;16.02;;;14.00;;
41572;SDS011;27286;47.870;19.006;2022-12-07T05:24:57;17.00;;;12.90;;
41572;SDS011;27286;47.870;19.006;2022-12-07T05:27:22;18.67;;;13.18;;
41572;SDS011;27286;47.870;19.006;2022-12-07T05:29:49;16.38;;;12.60;;
41572;SDS011;27286;47.870;19.006;2022-12-07T05:32:15;17.33;;;13.80;;
41572;SDS011;27286;47.870;19.006;2022-12-07T05:34:40;18.70;;;14.80;;
41572;SDS011;27286;47.870;19.006;2022-12-07T05:37:06;20.55;;;15.52;;
41572;SDS011;27286;47.870;19.006;2022-12-07T05:39:31;20.23;;;15.00;;
41572;SDS011;27286;47.870;19.006;2022-12-07T05:41:56;19.58;;;16.02;;
41572;SDS011;27286;47.870;19.006;2022-12-07T05:44:37;20.30;;;16.35;;
41572;SDS011;27286;47.870;19.006;2022-12-07T05:47:05;20.95;;;16.10;;
41572;SDS011;27286;47.870;19.006;2022-12-07T05:49:31;20.05;;;16.17;;
41572;SDS011;27286;47.870;19.006;2022-12-07T05:51:56;21.33;;;16.52;;
41572;SDS011;27286;47.870;19.006;2022-12-07T05:54:22;20.25;;;15.68;;
41572;SDS011;27286;47.870;19.006;2022-12-07T05:56:47;21.95;;;17.50;;
41572;SDS011;27286;47.870;19.006;2022-12-07T05:59:13;20.25;;;15.73;;
41572;SDS011;27286;47.870;19.006;2022-12-07T06:01:51;17.67;;;14.02;;
41572;SDS011;27286;47.870;19.006;2022-12-07T06:04:27;19.58;;;14.75;;
41572;SDS011;27286;47.870;19.006;2022-12-07T06:06:55;18.55;;;13.68;;
41572;SDS011;27286;47.870;19.006;2022-12-07T06:09:21;19.02;;;13.70;;
41572;SDS011;27286;47.870;19.006;2022-12-07T06:11:48;15.95;;;13.35;;
41572;SDS011;27286;47.870;19.006;2022-12-07T06:14:32;14.35;;;12.10;;
41572;SDS011;27286;47.870;19.006;2022-12-07T06:16:58;16.48;;;12.48;;
41572;SDS011;27286;47.870;19.006;2022-12-07T06:19:24;16.45;;;12.85;;
41572;SDS011;27286;47.870;19.006;2022-12-07T06:21:49;16.75;;;13.10;;
41572;SDS011;27286;47.870;19.006;2022-12-07T06:24:15;20.45;;;15.43;;
41572;SDS011;27286;47.870;19.006;2022-12-07T06:26:42;17.33;;;13.45;;
41572;SDS011;27286;47.870;19.006;2022-12-07T06:29:09;16.15;;;13.38;;
41572;SDS011;27286;47.870;19.006;2022-12-07T06:31:35;15.45;;;12.88;;
41572;SDS011;27286;47.870;19.006;2022-12-07T06:34:02;18.15;;;14.18;;
41572;SDS011;27286;47.870;19.006;2022-12-07T06:36:29;16.92;;;12.38;;
41572;SDS011;27286;47.870;19.006;2022-12-07T06:38:55;13.18;;;11.77;;
41572;SDS011;27286;47.870;19.006;2022-12-07T06:41:21;17.83;;;13.50;;
41572;SDS011;27286;47.870;19.006;2022-12-07T06:43:46;16.67;;;12.30;;
41572;SDS011;27286;47.870;19.006;2022-12-07T06:46:13;24.80;;;19.15;;
41572;SDS011;27286;47.870;19.006;2022-12-07T06:48:39;29.73;;;20.73;;
41572;SDS011;27286;47.870;19.006;2022-12-07T06:51:05;19.20;;;14.50;;
41572;SDS011;27286;47.870;19.006;2022-12-07T06:53:30;20.88;;;14.32;;
41572;SDS011;27286;47.870;19.006;2022-12-07T06:55:56;15.48;;;13.18;;
41572;SDS011;27286;47.870;19.006;2022-12-07T06:58:21;18.52;;;11.75;;
41572;SDS011;27286;47.870;19.006;2022-12-07T07:00:47;14.23;;;11.38;;
41572;SDS011;27286;47.870;19.006;2022-12-07T07:03:14;14.18;;;11.95;;
41572;SDS011;27286;47.870;19.006;2022-12-07T07:05:40;16.70;;;12.98;;
41572;SDS011;27286;47.870;19.006;2022-12-07T07:08:06;13.60;;;10.98;;
41572;SDS011;27286;47.870;19.006;2022-12-07T07:10:31;15.30;;;12.75;;
41572;SDS011;27286;47.870;19.006;2022-12-07T07:12:57;12.10;;;9.85;;
41572;SDS011;27286;47.870;19.006;2022-12-07T07:15:22;11.10;;;9.13;;
41572;SDS011;27286;47.870;19.006;2022-12-07T07:17:48;12.82;;;9.98;;
41572;SDS011;27286;47.870;19.006;2022-12-07T07:20:13;9.77;;;8.48;;
41572;SDS011;27286;47.870;19.006;2022-12-07T07:22:38;13.40;;;10.48;;
41572;SDS011;27286;47.870;19.006;2022-12-07T07:25:04;11.45;;;8.35;;
41572;SDS011;27286;47.870;19.006;2022-12-07T07:27:29;11.07;;;9.30;;
41572;SDS011;27286;47.870;19.006;2022-12-07T07:29:55;11.75;;;8.75;;
41572;SDS011;27286;47.870;19.006;2022-12-07T07:32:20;10.98;;;8.82;;
41572;SDS011;27286;47.870;19.006;2022-12-07T07:34:47;10.73;;;8.48;;
41572;SDS011;27286;47.870;19.006;2022-12-07T07:37:12;12.85;;;9.77;;
41572;SDS011;27286;47.870;19.006;2022-12-07T07:39:39;15.13;;;9.98;;
41572;SDS011;27286;47.870;19.006;2022-12-07T07:42:04;16.15;;;11.57;;
41572;SDS011;27286;47.870;19.006;2022-12-07T07:44:32;15.13;;;10.77;;
41572;SDS011;27286;47.870;19.006;2022-12-07T07:46:58;11.98;;;9.38;;
41572;SDS011;27286;47.870;19.006;2022-12-07T07:49:23;17.55;;;11.75;;
41572;SDS011;27286;47.870;19.006;2022-12-07T07:51:49;18.08;;;12.80;;
41572;SDS011;27286;47.870;19.006;2022-12-07T07:54:14;13.52;;;10.35;;
41572;SDS011;27286;47.870;19.006;2022-12-07T07:56:40;13.82;;;9.57;;
41572;SDS011;27286;47.870;19.006;2022-12-07T07:59:05;10.05;;;7.88;;
41572;SDS011;27286;47.870;19.006;2022-12-07T08:01:31;12.55;;;8.40;;
41572;SDS011;27286;47.870;19.006;2022-12-07T08:03:56;14.40;;;10.73;;
41572;SDS011;27286;47.870;19.006;2022-12-07T08:06:22;15.20;;;10.13;;
41572;SDS011;27286;47.870;19.006;2022-12-07T08:08:47;11.98;;;8.18;;
41572;SDS011;27286;47.870;19.006;2022-12-07T08:11:12;14.30;;;8.10;;
41572;SDS011;27286;47.870;19.006;2022-12-07T08:13:38;10.70;;;8.48;;
41572;SDS011;27286;47.870;19.006;2022-12-07T08:16:07;13.27;;;7.63;;
41572;SDS011;27286;47.870;19.006;2022-12-07T08:18:35;17.55;;;11.88;;
41572;SDS011;27286;47.870;19.006;2022-12-07T08:21:01;17.48;;;10.73;;
41572;SDS011;27286;47.870;19.006;2022-12-07T08:23:27;20.23;;;13.63;;
41572;SDS011;27286;47.870;19.006;2022-12-07T08:25:53;21.25;;;13.68;;
41572;SDS011;27286;47.870;19.006;2022-12-07T08:28:18;13.65;;;10.00;;
41572;SDS011;27286;47.870;19.006;2022-12-07T08:30:44;18.88;;;14.02;;
41572;SDS011;27286;47.870;19.006;2022-12-07T08:33:09;13.85;;;9.98;;
41572;SDS011;27286;47.870;19.006;2022-12-07T08:35:35;15.20;;;10.70;;
41572;SDS011;27286;47.870;19.006;2022-12-07T08:38:01;9.57;;;7.35;;
41572;SDS011;27286;47.870;19.006;2022-12-07T08:40:27;17.35;;;11.32;;
41572;SDS011;27286;47.870;19.006;2022-12-07T08:42:53;13.38;;;8.77;;
41572;SDS011;27286;47.870;19.006;2022-12-07T08:45:19;9.90;;;6.55;;
41572;SDS011;27286;47.870;19.006;2022-12-07T08:47:50;13.27;;;9.52;;
41572;SDS011;27286;47.870;19.006;2022-12-07T08:50:20;10.03;;;6.80;;
41572;SDS011;27286;47.870;19.006;2022-12-07T08:52:51;16.10;;;12.75;;
41572;SDS011;27286;47.870;19.006;2022-12-07T08:55:19;12.15;;;9.35;;
41572;SDS011;27286;47.870;19.006;2022-12-07T08:57:44;7.00;;;5.70;;
41572;SDS011;27286;47.870;19.006;2022-12-07T09:00:10;9.52;;;6.40;;
41572;SDS011;27286;47.870;19.006;2022-12-07T09:02:36;8.13;;;6.38;;
41572;SDS011;27286;47.870;19.006;2022-12-07T09:05:02;5.07;;;3.67;;
41572;SDS011;27286;47.870;19.006;2022-12-07T09:07:29;5.05;;;3.60;;
41572;SDS011;27286;47.870;19.006;2022-12-07T09:09:56;5.55;;;3.42;;
41572;SDS011;27286;47.870;19.006;2022-12-07T09:12:22;6.82;;;5.63;;
41572;SDS011;27286;47.870;19.006;2022-12-07T09:14:47;6.40;;;4.78;;
41572;SDS011;27286;47.870;19.006;2022-12-07T09:17:13;11.88;;;7.35;;
41572;SDS011;27286;47.870;19.006;2022-12-07T09:19:38;8.02;;;5.45;;
41572;SDS011;27286;47.870;19.006;2022-12-07T09:22:05;11.52;;;6.05;;
41572;SDS011;27286;47.870;19.006;2022-12-07T09:24:31;27.13;;;16.00;;
41572;SDS011;27286;47.870;19.006;2022-12-07T09:26:57;11.00;;;6.65;;
41572;SDS011;27286;47.870;19.006;2022-12-07T09:29:23;8.25;;;5.55;;
41572;SDS011;27286;47.870;19.006;2022-12-07T09:31:48;36.88;;;20.20;;
41572;SDS011;27286;47.870;19.006;2022-12-07T09:34:14;12.73;;;7.25;;
41572;SDS011;27286;47.870;19.006;2022-12-07T09:36:39;25.17;;;15.15;;
41572;SDS011;27286;47.870;19.006;2022-12-07T09:39:04;11.13;;;6.75;;
41572;SDS011;27286;47.870;19.006;2022-12-07T09:41:30;16.90;;;10.98;;
41572;SDS011;27286;47.870;19.006;2022-12-07T09:44:00;14.50;;;9.07;;
41572;SDS011;27286;47.870;19.006;2022-12-07T09:46:29;9.35;;;6.60;;
41572;SDS011;27286;47.870;19.006;2022-12-07T09:49:01;11.48;;;8.32;;
41572;SDS011;27286;47.870;19.006;2022-12-07T09:51:26;17.83;;;12.82;;
41572;SDS011;27286;47.870;19.006;2022-12-07T09:53:53;7.88;;;4.93;;
41572;SDS011;27286;47.870;19.006;2022-12-07T09:56:21;8.75;;;6.13;;
41572;SDS011;27286;47.870;19.006;2022-12-07T09:58:48;9.50;;;4.38;;
41572;SDS011;27286;47.870;19.006;2022-12-07T10:01:15;6.15;;;4.05;;
41572;SDS011;27286;47.870;19.006;2022-12-07T10:06:19;6.45;;;4.32;;
41572;SDS011;27286;47.870;19.006;2022-12-07T10:08:44;5.85;;;4.95;;
41572;SDS011;27286;47.870;19.006;2022-12-07T10:11:10;8.40;;;6.47;;
41572;SDS011;27286;47.870;19.006;2022-12-07T10:16:02;22.77;;;14.52;;
41572;SDS011;27286;47.870;19.006;2022-12-07T10:23:34;7.80;;;5.55;;
41572;SDS011;27286;47.870;19.006;2022-12-07T10:26:18;6.55;;;4.50;;
41572;SDS011;27286;47.870;19.006;2022-12-07T10:28:47;5.97;;;5.18;;
41572;SDS011;27286;47.870;19.006;2022-12-07T10:31:17;5.53;;;4.47;;
41572;SDS011;27286;47.870;19.006;2022-12-07T10:39:01;9.30;;;6.68;;
41572;SDS011;27286;47.870;19.006;2022-12-07T10:41:26;8.30;;;5.78;;
41572;SDS011;27286;47.870;19.006;2022-12-07T10:43:53;8.80;;;6.22;;
41572;SDS011;27286;47.870;19.006;2022-12-07T10:49:08;9.30;;;6.78;;
41572;SDS011;27286;47.870;19.006;2022-12-07T10:57:16;9.93;;;7.47;;
41572;SDS011;27286;47.870;19.006;2022-12-07T11:14:27;9.38;;;6.28;;
41572;SDS011;27286;47.870;19.006;2022-12-07T11:17:17;11.55;;;6.60;;
41572;SDS011;27286;47.870;19.006;2022-12-07T11:20:18;9.07;;;5.55;;
41572;SDS011;27286;47.870;19.006;2022-12-07T11:23:11;6.35;;;4.50;;
41572;SDS011;27286;47.870;19.006;2022-12-07T11:31:29;6.65;;;5.55;;
41572;SDS011;27286;47.870;19.006;2022-12-07T11:34:06;8.77;;;5.82;;
41572;SDS011;27286;47.870;19.006;2022-12-07T11:36:53;7.32;;;5.82;;
41572;SDS011;27286;47.870;19.006;2022-12-07T11:39:28;10.45;;;7.45;;
41572;SDS011;27286;47.870;19.006;2022-12-07T11:42:11;7.00;;;5.93;;
41572;SDS011;27286;47.870;19.006;2022-12-07T11:44:55;9.63;;;6.53;;
41572;SDS011;27286;47.870;19.006;2022-12-07T11:47:47;8.23;;;5.90;;
41572;SDS011;27286;47.870;19.006;2022-12-07T11:50:27;6.03;;;4.50;;
41572;SDS011;27286;47.870;19.006;2022-12-07T11:55:50;6.18;;;4.63;;
41572;SDS011;27286;47.870;19.006;2022-12-07T12:06:24;7.40;;;5.88;;
41572;SDS011;27286;47.870;19.006;2022-12-07T12:19:42;9.23;;;5.85;;
41572;SDS011;27286;47.870;19.006;2022-12-07T12:22:45;10.43;;;6.70;;
41572;SDS011;27286;47.870;19.006;2022-12-07T12:25:27;10.38;;;7.28;;
41572;SDS011;27286;47.870;19.006;2022-12-07T12:27:57;6.20;;;5.43;;
41572;SDS011;27286;47.870;19.006;2022-12-07T12:32:49;7.57;;;5.95;;
41572;SDS011;27286;47.870;19.006;2022-12-07T12:35:29;5.93;;;4.60;;
41572;SDS011;27286;47.870;19.006;2022-12-07T12:54:24;6.15;;;4.97;;
41572;SDS011;27286;47.870;19.006;2022-12-07T13:02:19;7.90;;;5.40;;
41572;SDS011;27286;47.870;19.006;2022-12-07T13:15:36;8.48;;;5.93;;
41572;SDS011;27286;47.870;19.006;2022-12-07T13:29:11;8.05;;;6.10;;
41572;SDS011;27286;47.870;19.006;2022-12-07T13:31:42;8.10;;;6.05;;
41572;SDS011;27286;47.870;19.006;2022-12-07T13:36:55;8.95;;;7.00;;
41572;SDS011;27286;47.870;19.006;2022-12-07T13:39:22;11.18;;;8.80;;
41572;SDS011;27286;47.870;19.006;2022-12-07T13:41:50;10.38;;;6.57;;
41572;SDS011;27286;47.870;19.006;2022-12-07T13:44:18;9.45;;;6.70;;
41572;SDS011;27286;47.870;19.006;2022-12-07T13:49:20;15.20;;;10.40;;
41572;SDS011;27286;47.870;19.006;2022-12-07T13:51:47;12.70;;;8.13;;
41572;SDS011;27286;47.870;19.006;2022-12-07T13:54:15;11.43;;;8.02;;
41572;SDS011;27286;47.870;19.006;2022-12-07T13:56:41;27.60;;;15.90;;
41572;SDS011;27286;47.870;19.006;2022-12-07T13:59:21;12.25;;;7.45;;
41572;SDS011;27286;47.870;19.006;2022-12-07T14:01:49;8.38;;;6.05;;
41572;SDS011;27286;47.870;19.006;2022-12-07T14:04:16;10.48;;;7.47;;
41572;SDS011;27286;47.870;19.006;2022-12-07T14:06:59;8.23;;;5.90;;
41572;SDS011;27286;47.870;19.006;2022-12-07T14:09:26;15.27;;;7.20;;
41572;SDS011;27286;47.870;19.006;2022-12-07T14:11:53;9.15;;;6.50;;
41572;SDS011;27286;47.870;19.006;2022-12-07T14:14:25;16.45;;;11.60;;
41572;SDS011;27286;47.870;19.006;2022-12-07T14:16:58;14.75;;;9.00;;
41572;SDS011;27286;47.870;19.006;2022-12-07T14:22:31;16.52;;;12.65;;
41572;SDS011;27286;47.870;19.006;2022-12-07T14:25:01;11.32;;;8.70;;
41572;SDS011;27286;47.870;19.006;2022-12-07T14:27:59;10.68;;;8.43;;
41572;SDS011;27286;47.870;19.006;2022-12-07T14:30:27;11.43;;;8.70;;
41572;SDS011;27286;47.870;19.006;2022-12-07T14:32:56;13.23;;;10.00;;
41572;SDS011;27286;47.870;19.006;2022-12-07T14:35:24;10.57;;;8.05;;
41572;SDS011;27286;47.870;19.006;2022-12-07T14:37:49;12.15;;;7.32;;
41572;SDS011;27286;47.870;19.006;2022-12-07T14:40:26;9.15;;;6.60;;
41572;SDS011;27286;47.870;19.006;2022-12-07T14:43:03;10.55;;;7.22;;
41572;SDS011;27286;47.870;19.006;2022-12-07T14:45:31;11.20;;;7.30;;
41572;SDS011;27286;47.870;19.006;2022-12-07T14:47:57;9.13;;;6.75;;
41572;SDS011;27286;47.870;19.006;2022-12-07T14:50:23;10.38;;;8.13;;
41572;SDS011;27286;47.870;19.006;2022-12-07T14:52:55;14.55;;;9.32;;
41572;SDS011;27286;47.870;19.006;2022-12-07T14:55:28;16.98;;;8.98;;
41572;SDS011;27286;47.870;19.006;2022-12-07T14:57:55;22.23;;;12.48;;
41572;SDS011;27286;47.870;19.006;2022-12-07T15:00:23;19.00;;;13.18;;
41572;SDS011;27286;47.870;19.006;2022-12-07T15:02:51;21.80;;;13.55;;
41572;SDS011;27286;47.870;19.006;2022-12-07T15:05:16;28.25;;;17.25;;
41572;SDS011;27286;47.870;19.006;2022-12-07T15:07:43;36.97;;;22.42;;
41572;SDS011;27286;47.870;19.006;2022-12-07T15:10:15;22.30;;;15.98;;
41572;SDS011;27286;47.870;19.006;2022-12-07T15:12:41;19.33;;;15.73;;
41572;SDS011;27286;47.870;19.006;2022-12-07T15:15:06;19.00;;;16.10;;
41572;SDS011;27286;47.870;19.006;2022-12-07T15:17:32;15.75;;;12.23;;
41572;SDS011;27286;47.870;19.006;2022-12-07T15:19:57;17.50;;;12.00;;
41572;SDS011;27286;47.870;19.006;2022-12-07T15:22:23;13.90;;;10.55;;
41572;SDS011;27286;47.870;19.006;2022-12-07T15:24:48;17.02;;;12.75;;
41572;SDS011;27286;47.870;19.006;2022-12-07T15:27:14;23.23;;;14.55;;
41572;SDS011;27286;47.870;19.006;2022-12-07T15:29:39;27.30;;;19.67;;
41572;SDS011;27286;47.870;19.006;2022-12-07T15:32:05;30.05;;;16.67;;
41572;SDS011;27286;47.870;19.006;2022-12-07T15:34:30;27.88;;;17.33;;
41572;SDS011;27286;47.870;19.006;2022-12-07T15:36:56;35.88;;;18.63;;
41572;SDS011;27286;47.870;19.006;2022-12-07T15:39:22;43.03;;;24.02;;
41572;SDS011;27286;47.870;19.006;2022-12-07T15:41:48;55.00;;;28.63;;
41572;SDS011;27286;47.870;19.006;2022-12-07T15:44:13;49.50;;;28.77;;
41572;SDS011;27286;47.870;19.006;2022-12-07T15:46:58;48.15;;;30.52;;
41572;SDS011;27286;47.870;19.006;2022-12-07T15:49:24;46.38;;;30.65;;
41572;SDS011;27286;47.870;19.006;2022-12-07T15:51:49;37.33;;;25.13;;
41572;SDS011;27286;47.870;19.006;2022-12-07T15:56:48;44.85;;;27.67;;
41572;SDS011;27286;47.870;19.006;2022-12-07T15:59:14;42.47;;;26.15;;
41572;SDS011;27286;47.870;19.006;2022-12-07T16:01:39;32.97;;;21.10;;
41572;SDS011;27286;47.870;19.006;2022-12-07T16:04:05;29.25;;;20.40;;
41572;SDS011;27286;47.870;19.006;2022-12-07T16:06:31;36.28;;;25.27;;
41572;SDS011;27286;47.870;19.006;2022-12-07T16:08:56;30.70;;;20.65;;
41572;SDS011;27286;47.870;19.006;2022-12-07T16:11:22;41.05;;;26.35;;
41572;SDS011;27286;47.870;19.006;2022-12-07T16:13:47;41.03;;;26.45;;
41572;SDS011;27286;47.870;19.006;2022-12-07T16:16:14;40.25;;;23.75;;
41572;SDS011;27286;47.870;19.006;2022-12-07T16:18:44;23.85;;;16.23;;
41572;SDS011;27286;47.870;19.006;2022-12-07T16:21:10;14.30;;;10.13;;
41572;SDS011;27286;47.870;19.006;2022-12-07T16:23:36;11.70;;;8.40;;
41572;SDS011;27286;47.870;19.006;2022-12-07T16:26:09;9.77;;;7.05;;
41572;SDS011;27286;47.870;19.006;2022-12-07T16:28:41;10.15;;;6.18;;
41572;SDS011;27286;47.870;19.006;2022-12-07T16:31:11;8.15;;;5.82;;
41572;SDS011;27286;47.870;19.006;2022-12-07T16:33:39;10.65;;;7.00;;
41572;SDS011;27286;47.870;19.006;2022-12-07T16:36:07;9.10;;;6.60;;
41572;SDS011;27286;47.870;19.006;2022-12-07T16:38:35;9.32;;;6.35;;
41572;SDS011;27286;47.870;19.006;2022-12-07T16:41:01;11.55;;;7.53;;
41572;SDS011;27286;47.870;19.006;2022-12-07T16:43:26;14.88;;;9.10;;
41572;SDS011;27286;47.870;19.006;2022-12-07T16:45:52;18.95;;;10.90;;
41572;SDS011;27286;47.870;19.006;2022-12-07T16:48:18;18.20;;;11.35;;
41572;SDS011;27286;47.870;19.006;2022-12-07T16:50:44;20.38;;;12.50;;
41572;SDS011;27286;47.870;19.006;2022-12-07T16:53:10;29.02;;;14.48;;
41572;SDS011;27286;47.870;19.006;2022-12-07T16:55:37;27.33;;;19.20;;
41572;SDS011;27286;47.870;19.006;2022-12-07T16:58:03;146.55;;;87.28;;
41572;SDS011;27286;47.870;19.006;2022-12-07T17:00:29;93.78;;;57.85;;
41572;SDS011;27286;47.870;19.006;2022-12-07T17:02:55;78.57;;;51.80;;
41572;SDS011;27286;47.870;19.006;2022-12-07T17:05:20;39.40;;;25.75;;
41572;SDS011;27286;47.870;19.006;2022-12-07T17:07:46;42.45;;;27.70;;